sensor_id;sensor_type;location;lat;lon;timestamp;P1;durP1;ratioP1;P2;durP2;ratioP2
19509;SDS011;9896;42.486;26.506;2023-02-28T00:00:31;13.00;;;5.93;;
19509;SDS011;9896;42.486;26.506;2023-02-28T00:02:57;13.07;;;7.30;;
19509;SDS011;9896;42.486;26.506;2023-02-28T00:05:24;9.80;;;5.27;;
19509;SDS011;9896;42.486;26.506;2023-02-28T00:07:51;14.40;;;7.77;;
19509;SDS011;9896;42.486;26.506;2023-02-28T00:10:21;15.60;;;7.43;;
19509;SDS011;9896;42.486;26.506;2023-02-28T00:12:48;11.47;;;5.67;;
19509;SDS011;9896;42.486;26.506;2023-02-28T00:15:17;12.53;;;6.57;;
19509;SDS011;9896;42.486;26.506;2023-02-28T00:17:43;13.40;;;6.77;;
19509;SDS011;9896;42.486;26.506;2023-02-28T00:20:10;12.67;;;5.97;;
19509;SDS011;9896;42.486;26.506;2023-02-28T00:22:38;11.53;;;5.80;;
19509;SDS011;9896;42.486;26.506;2023-02-28T00:25:05;12.90;;;5.83;;
19509;SDS011;9896;42.486;26.506;2023-02-28T00:27:33;14.57;;;6.57;;
19509;SDS011;9896;42.486;26.506;2023-02-28T00:30:00;10.03;;;5.00;;
19509;SDS011;9896;42.486;26.506;2023-02-28T00:32:26;10.80;;;5.33;;
19509;SDS011;9896;42.486;26.506;2023-02-28T00:34:51;10.57;;;4.90;;
19509;SDS011;9896;42.486;26.506;2023-02-28T00:37:17;9.27;;;5.97;;
19509;SDS011;9896;42.486;26.506;2023-02-28T00:39:43;10.23;;;4.80;;
19509;SDS011;9896;42.486;26.506;2023-02-28T00:42:08;10.60;;;5.17;;
19509;SDS011;9896;42.486;26.506;2023-02-28T00:44:34;14.57;;;5.73;;
19509;SDS011;9896;42.486;26.506;2023-02-28T00:47:00;9.73;;;5.40;;
19509;SDS011;9896;42.486;26.506;2023-02-28T00:49:26;11.30;;;4.60;;
19509;SDS011;9896;42.486;26.506;2023-02-28T00:51:52;8.77;;;4.40;;
19509;SDS011;9896;42.486;26.506;2023-02-28T00:54:19;5.00;;;3.20;;
19509;SDS011;9896;42.486;26.506;2023-02-28T00:56:46;10.63;;;5.03;;
19509;SDS011;9896;42.486;26.506;2023-02-28T00:59:12;10.60;;;5.57;;
19509;SDS011;9896;42.486;26.506;2023-02-28T01:01:39;9.23;;;4.83;;
19509;SDS011;9896;42.486;26.506;2023-02-28T01:04:04;10.63;;;5.10;;
19509;SDS011;9896;42.486;26.506;2023-02-28T01:06:30;11.43;;;5.63;;
19509;SDS011;9896;42.486;26.506;2023-02-28T01:08:57;13.10;;;5.40;;
19509;SDS011;9896;42.486;26.506;2023-02-28T01:11:23;8.87;;;4.90;;
19509;SDS011;9896;42.486;26.506;2023-02-28T01:13:49;13.30;;;5.50;;
19509;SDS011;9896;42.486;26.506;2023-02-28T01:16:15;8.83;;;5.03;;
19509;SDS011;9896;42.486;26.506;2023-02-28T01:18:41;15.60;;;6.10;;
19509;SDS011;9896;42.486;26.506;2023-02-28T01:21:08;9.27;;;5.03;;
19509;SDS011;9896;42.486;26.506;2023-02-28T01:23:36;10.70;;;5.43;;
19509;SDS011;9896;42.486;26.506;2023-02-28T01:26:05;10.57;;;5.03;;
19509;SDS011;9896;42.486;26.506;2023-02-28T01:28:32;10.90;;;6.00;;
19509;SDS011;9896;42.486;26.506;2023-02-28T01:30:58;9.90;;;5.07;;
19509;SDS011;9896;42.486;26.506;2023-02-28T01:33:23;12.30;;;5.93;;
19509;SDS011;9896;42.486;26.506;2023-02-28T01:35:49;12.47;;;6.03;;
19509;SDS011;9896;42.486;26.506;2023-02-28T01:38:22;9.43;;;5.33;;
19509;SDS011;9896;42.486;26.506;2023-02-28T01:40:48;10.87;;;5.60;;
19509;SDS011;9896;42.486;26.506;2023-02-28T01:43:21;9.53;;;5.47;;
19509;SDS011;9896;42.486;26.506;2023-02-28T01:45:52;9.43;;;4.83;;
19509;SDS011;9896;42.486;26.506;2023-02-28T01:48:19;14.03;;;6.87;;
19509;SDS011;9896;42.486;26.506;2023-02-28T01:50:48;10.17;;;6.40;;
19509;SDS011;9896;42.486;26.506;2023-02-28T01:53:16;14.47;;;5.53;;
19509;SDS011;9896;42.486;26.506;2023-02-28T01:55:45;21.47;;;5.90;;
19509;SDS011;9896;42.486;26.506;2023-02-28T01:58:14;11.13;;;5.93;;
19509;SDS011;9896;42.486;26.506;2023-02-28T02:00:41;10.80;;;6.30;;
19509;SDS011;9896;42.486;26.506;2023-02-28T02:03:12;10.43;;;6.30;;
19509;SDS011;9896;42.486;26.506;2023-02-28T02:05:40;13.23;;;6.30;;
19509;SDS011;9896;42.486;26.506;2023-02-28T02:08:08;12.33;;;5.07;;
19509;SDS011;9896;42.486;26.506;2023-02-28T02:10:53;12.67;;;6.80;;
19509;SDS011;9896;42.486;26.506;2023-02-28T02:16:04;14.67;;;7.00;;
19509;SDS011;9896;42.486;26.506;2023-02-28T02:18:41;10.13;;;5.07;;
19509;SDS011;9896;42.486;26.506;2023-02-28T02:21:16;13.00;;;7.37;;
19509;SDS011;9896;42.486;26.506;2023-02-28T02:34:39;11.27;;;6.73;;
19509;SDS011;9896;42.486;26.506;2023-02-28T02:37:11;13.40;;;7.03;;
19509;SDS011;9896;42.486;26.506;2023-02-28T02:40:02;13.43;;;7.10;;
19509;SDS011;9896;42.486;26.506;2023-02-28T02:45:44;13.07;;;7.87;;
19509;SDS011;9896;42.486;26.506;2023-02-28T02:48:16;12.87;;;7.50;;
19509;SDS011;9896;42.486;26.506;2023-02-28T02:50:45;12.93;;;7.20;;
19509;SDS011;9896;42.486;26.506;2023-02-28T02:53:15;11.73;;;6.80;;
19509;SDS011;9896;42.486;26.506;2023-02-28T02:55:44;12.87;;;7.13;;
19509;SDS011;9896;42.486;26.506;2023-02-28T02:58:20;8.97;;;5.63;;
19509;SDS011;9896;42.486;26.506;2023-02-28T03:00:53;11.90;;;6.63;;
19509;SDS011;9896;42.486;26.506;2023-02-28T03:03:23;9.50;;;5.33;;
19509;SDS011;9896;42.486;26.506;2023-02-28T03:05:54;13.93;;;6.70;;
19509;SDS011;9896;42.486;26.506;2023-02-28T03:08:24;12.17;;;7.23;;
19509;SDS011;9896;42.486;26.506;2023-02-28T03:10:51;13.23;;;7.70;;
19509;SDS011;9896;42.486;26.506;2023-02-28T03:18:58;14.30;;;7.43;;
19509;SDS011;9896;42.486;26.506;2023-02-28T03:24:05;14.93;;;8.03;;
19509;SDS011;9896;42.486;26.506;2023-02-28T03:26:31;12.33;;;5.10;;
19509;SDS011;9896;42.486;26.506;2023-02-28T03:29:34;12.70;;;7.40;;
19509;SDS011;9896;42.486;26.506;2023-02-28T03:32:14;13.10;;;7.77;;
19509;SDS011;9896;42.486;26.506;2023-02-28T03:34:50;11.27;;;6.60;;
19509;SDS011;9896;42.486;26.506;2023-02-28T03:37:24;15.10;;;8.07;;
19509;SDS011;9896;42.486;26.506;2023-02-28T03:40:02;14.70;;;8.83;;
19509;SDS011;9896;42.486;26.506;2023-02-28T03:42:34;11.10;;;6.83;;
19509;SDS011;9896;42.486;26.506;2023-02-28T03:45:10;17.93;;;9.00;;
19509;SDS011;9896;42.486;26.506;2023-02-28T03:47:49;15.07;;;8.90;;
19509;SDS011;9896;42.486;26.506;2023-02-28T03:50:22;14.17;;;7.57;;
19509;SDS011;9896;42.486;26.506;2023-02-28T03:53:08;9.13;;;6.00;;
19509;SDS011;9896;42.486;26.506;2023-02-28T03:58:42;10.70;;;6.33;;
19509;SDS011;9896;42.486;26.506;2023-02-28T04:01:15;13.90;;;8.30;;
19509;SDS011;9896;42.486;26.506;2023-02-28T04:03:46;11.90;;;7.43;;
19509;SDS011;9896;42.486;26.506;2023-02-28T04:06:16;11.90;;;7.70;;
19509;SDS011;9896;42.486;26.506;2023-02-28T04:08:45;14.77;;;8.23;;
19509;SDS011;9896;42.486;26.506;2023-02-28T04:11:31;15.40;;;8.90;;
19509;SDS011;9896;42.486;26.506;2023-02-28T04:13:58;13.97;;;7.93;;
19509;SDS011;9896;42.486;26.506;2023-02-28T04:16:23;8.97;;;5.97;;
19509;SDS011;9896;42.486;26.506;2023-02-28T04:18:49;12.30;;;7.17;;
19509;SDS011;9896;42.486;26.506;2023-02-28T04:21:15;14.50;;;7.87;;
19509;SDS011;9896;42.486;26.506;2023-02-28T04:23:40;10.40;;;6.47;;
19509;SDS011;9896;42.486;26.506;2023-02-28T04:26:06;9.93;;;6.33;;
19509;SDS011;9896;42.486;26.506;2023-02-28T04:28:32;15.63;;;9.30;;
19509;SDS011;9896;42.486;26.506;2023-02-28T04:30:59;17.30;;;9.57;;
19509;SDS011;9896;42.486;26.506;2023-02-28T04:33:26;13.20;;;7.60;;
19509;SDS011;9896;42.486;26.506;2023-02-28T04:36:02;18.33;;;9.80;;
19509;SDS011;9896;42.486;26.506;2023-02-28T04:38:35;14.57;;;8.50;;
19509;SDS011;9896;42.486;26.506;2023-02-28T04:41:01;17.70;;;8.97;;
19509;SDS011;9896;42.486;26.506;2023-02-28T04:43:28;15.40;;;8.73;;
19509;SDS011;9896;42.486;26.506;2023-02-28T04:45:54;16.23;;;9.73;;
19509;SDS011;9896;42.486;26.506;2023-02-28T04:48:23;13.70;;;7.23;;
19509;SDS011;9896;42.486;26.506;2023-02-28T04:50:50;14.97;;;7.47;;
19509;SDS011;9896;42.486;26.506;2023-02-28T04:53:16;18.43;;;9.67;;
19509;SDS011;9896;42.486;26.506;2023-02-28T04:55:42;11.80;;;7.30;;
19509;SDS011;9896;42.486;26.506;2023-02-28T04:58:08;18.33;;;8.73;;
19509;SDS011;9896;42.486;26.506;2023-02-28T05:00:33;20.00;;;9.63;;
19509;SDS011;9896;42.486;26.506;2023-02-28T05:02:59;13.20;;;8.13;;
19509;SDS011;9896;42.486;26.506;2023-02-28T05:05:25;18.93;;;10.93;;
19509;SDS011;9896;42.486;26.506;2023-02-28T05:07:50;20.13;;;10.67;;
19509;SDS011;9896;42.486;26.506;2023-02-28T05:10:16;16.57;;;10.10;;
19509;SDS011;9896;42.486;26.506;2023-02-28T05:12:42;15.03;;;9.63;;
19509;SDS011;9896;42.486;26.506;2023-02-28T05:15:08;13.73;;;8.90;;
19509;SDS011;9896;42.486;26.506;2023-02-28T05:17:38;18.70;;;11.07;;
19509;SDS011;9896;42.486;26.506;2023-02-28T05:20:03;17.87;;;10.53;;
19509;SDS011;9896;42.486;26.506;2023-02-28T05:22:30;23.17;;;11.60;;
19509;SDS011;9896;42.486;26.506;2023-02-28T05:24:55;19.83;;;9.77;;
19509;SDS011;9896;42.486;26.506;2023-02-28T05:27:20;20.87;;;11.87;;
19509;SDS011;9896;42.486;26.506;2023-02-28T05:29:46;13.67;;;8.43;;
19509;SDS011;9896;42.486;26.506;2023-02-28T05:32:12;24.90;;;10.33;;
19509;SDS011;9896;42.486;26.506;2023-02-28T05:34:38;16.70;;;9.90;;
19509;SDS011;9896;42.486;26.506;2023-02-28T05:37:05;18.47;;;10.67;;
19509;SDS011;9896;42.486;26.506;2023-02-28T05:39:32;18.47;;;10.50;;
19509;SDS011;9896;42.486;26.506;2023-02-28T05:41:58;14.83;;;9.23;;
19509;SDS011;9896;42.486;26.506;2023-02-28T05:44:24;19.77;;;11.07;;
19509;SDS011;9896;42.486;26.506;2023-02-28T05:46:49;18.67;;;10.60;;
19509;SDS011;9896;42.486;26.506;2023-02-28T05:49:15;19.13;;;12.00;;
19509;SDS011;9896;42.486;26.506;2023-02-28T05:51:41;12.43;;;7.53;;
19509;SDS011;9896;42.486;26.506;2023-02-28T05:54:06;15.27;;;8.27;;
19509;SDS011;9896;42.486;26.506;2023-02-28T05:56:32;17.70;;;10.33;;
19509;SDS011;9896;42.486;26.506;2023-02-28T05:59:00;17.87;;;10.47;;
19509;SDS011;9896;42.486;26.506;2023-02-28T06:04:03;14.13;;;9.17;;
19509;SDS011;9896;42.486;26.506;2023-02-28T06:06:30;20.27;;;11.57;;
19509;SDS011;9896;42.486;26.506;2023-02-28T06:08:55;15.80;;;9.57;;
19509;SDS011;9896;42.486;26.506;2023-02-28T06:11:22;16.50;;;10.13;;
19509;SDS011;9896;42.486;26.506;2023-02-28T06:13:55;19.43;;;11.67;;
19509;SDS011;9896;42.486;26.506;2023-02-28T06:16:26;14.93;;;9.30;;
19509;SDS011;9896;42.486;26.506;2023-02-28T06:18:52;14.07;;;9.83;;
19509;SDS011;9896;42.486;26.506;2023-02-28T06:21:20;22.47;;;13.17;;
19509;SDS011;9896;42.486;26.506;2023-02-28T06:23:47;17.57;;;10.53;;
19509;SDS011;9896;42.486;26.506;2023-02-28T06:26:13;24.53;;;12.37;;
19509;SDS011;9896;42.486;26.506;2023-02-28T06:28:39;22.63;;;11.97;;
19509;SDS011;9896;42.486;26.506;2023-02-28T06:31:08;21.80;;;11.30;;
19509;SDS011;9896;42.486;26.506;2023-02-28T06:33:36;17.50;;;8.60;;
19509;SDS011;9896;42.486;26.506;2023-02-28T06:36:03;17.40;;;9.40;;
19509;SDS011;9896;42.486;26.506;2023-02-28T06:38:30;18.43;;;11.07;;
19509;SDS011;9896;42.486;26.506;2023-02-28T06:40:57;17.10;;;9.70;;
19509;SDS011;9896;42.486;26.506;2023-02-28T06:43:24;16.57;;;8.63;;
19509;SDS011;9896;42.486;26.506;2023-02-28T06:45:54;18.30;;;11.27;;
19509;SDS011;9896;42.486;26.506;2023-02-28T06:48:21;18.37;;;9.83;;
19509;SDS011;9896;42.486;26.506;2023-02-28T06:50:46;17.47;;;10.53;;
19509;SDS011;9896;42.486;26.506;2023-02-28T06:53:12;17.70;;;9.13;;
19509;SDS011;9896;42.486;26.506;2023-02-28T06:55:39;24.07;;;11.40;;
19509;SDS011;9896;42.486;26.506;2023-02-28T06:58:05;17.70;;;9.07;;
19509;SDS011;9896;42.486;26.506;2023-02-28T07:00:42;16.40;;;9.10;;
19509;SDS011;9896;42.486;26.506;2023-02-28T07:03:09;19.97;;;10.77;;
19509;SDS011;9896;42.486;26.506;2023-02-28T07:05:36;20.27;;;10.73;;
19509;SDS011;9896;42.486;26.506;2023-02-28T07:08:03;22.27;;;11.67;;
19509;SDS011;9896;42.486;26.506;2023-02-28T07:10:29;30.60;;;14.77;;
19509;SDS011;9896;42.486;26.506;2023-02-28T07:12:55;23.23;;;13.07;;
19509;SDS011;9896;42.486;26.506;2023-02-28T07:15:20;27.80;;;13.47;;
19509;SDS011;9896;42.486;26.506;2023-02-28T07:17:46;27.63;;;12.30;;
19509;SDS011;9896;42.486;26.506;2023-02-28T07:20:11;21.60;;;10.97;;
19509;SDS011;9896;42.486;26.506;2023-02-28T07:22:37;23.67;;;10.23;;
19509;SDS011;9896;42.486;26.506;2023-02-28T07:25:04;15.77;;;9.43;;
19509;SDS011;9896;42.486;26.506;2023-02-28T07:27:30;14.43;;;7.00;;
19509;SDS011;9896;42.486;26.506;2023-02-28T07:29:56;20.40;;;11.23;;
19509;SDS011;9896;42.486;26.506;2023-02-28T07:32:22;16.20;;;9.60;;
19509;SDS011;9896;42.486;26.506;2023-02-28T07:34:47;19.90;;;11.23;;
19509;SDS011;9896;42.486;26.506;2023-02-28T07:37:13;21.57;;;10.57;;
19509;SDS011;9896;42.486;26.506;2023-02-28T07:39:39;22.97;;;10.97;;
19509;SDS011;9896;42.486;26.506;2023-02-28T07:42:07;21.87;;;11.47;;
19509;SDS011;9896;42.486;26.506;2023-02-28T07:44:37;28.30;;;13.60;;
19509;SDS011;9896;42.486;26.506;2023-02-28T07:47:08;31.27;;;13.70;;
19509;SDS011;9896;42.486;26.506;2023-02-28T07:49:35;25.27;;;11.50;;
19509;SDS011;9896;42.486;26.506;2023-02-28T07:52:05;23.67;;;11.30;;
19509;SDS011;9896;42.486;26.506;2023-02-28T07:54:31;25.23;;;12.27;;
19509;SDS011;9896;42.486;26.506;2023-02-28T07:56:58;31.03;;;15.97;;
19509;SDS011;9896;42.486;26.506;2023-02-28T07:59:23;21.60;;;10.13;;
19509;SDS011;9896;42.486;26.506;2023-02-28T08:01:49;49.97;;;11.57;;
19509;SDS011;9896;42.486;26.506;2023-02-28T08:04:18;27.03;;;14.80;;
19509;SDS011;9896;42.486;26.506;2023-02-28T08:06:44;23.43;;;11.63;;
19509;SDS011;9896;42.486;26.506;2023-02-28T08:09:10;27.13;;;10.77;;
19509;SDS011;9896;42.486;26.506;2023-02-28T08:11:36;21.67;;;11.60;;
19509;SDS011;9896;42.486;26.506;2023-02-28T08:14:02;26.47;;;13.60;;
19509;SDS011;9896;42.486;26.506;2023-02-28T08:16:27;26.20;;;12.07;;
19509;SDS011;9896;42.486;26.506;2023-02-28T08:18:53;18.10;;;10.50;;
19509;SDS011;9896;42.486;26.506;2023-02-28T08:21:19;17.93;;;9.77;;
19509;SDS011;9896;42.486;26.506;2023-02-28T08:23:49;14.00;;;7.30;;
19509;SDS011;9896;42.486;26.506;2023-02-28T08:26:16;18.30;;;10.10;;
19509;SDS011;9896;42.486;26.506;2023-02-28T08:28:42;14.70;;;9.20;;
19509;SDS011;9896;42.486;26.506;2023-02-28T08:31:13;13.83;;;8.30;;
19509;SDS011;9896;42.486;26.506;2023-02-28T08:33:40;14.30;;;7.73;;
19509;SDS011;9896;42.486;26.506;2023-02-28T08:36:08;13.17;;;6.70;;
19509;SDS011;9896;42.486;26.506;2023-02-28T08:38:34;15.80;;;7.60;;
19509;SDS011;9896;42.486;26.506;2023-02-28T08:41:01;13.23;;;7.57;;
19509;SDS011;9896;42.486;26.506;2023-02-28T08:43:28;13.20;;;8.17;;
19509;SDS011;9896;42.486;26.506;2023-02-28T08:45:55;15.90;;;9.27;;
19509;SDS011;9896;42.486;26.506;2023-02-28T08:48:24;14.80;;;7.80;;
19509;SDS011;9896;42.486;26.506;2023-02-28T08:53:27;12.67;;;7.33;;
19509;SDS011;9896;42.486;26.506;2023-02-28T08:55:59;13.80;;;8.80;;
19509;SDS011;9896;42.486;26.506;2023-02-28T08:58:26;17.27;;;7.60;;
19509;SDS011;9896;42.486;26.506;2023-02-28T09:00:52;16.50;;;9.03;;
19509;SDS011;9896;42.486;26.506;2023-02-28T09:03:19;16.47;;;8.23;;
19509;SDS011;9896;42.486;26.506;2023-02-28T09:05:52;15.93;;;7.70;;
19509;SDS011;9896;42.486;26.506;2023-02-28T09:08:19;13.47;;;8.37;;
19509;SDS011;9896;42.486;26.506;2023-02-28T09:10:44;20.27;;;9.73;;
19509;SDS011;9896;42.486;26.506;2023-02-28T09:13:10;14.93;;;8.87;;
19509;SDS011;9896;42.486;26.506;2023-02-28T09:15:37;19.37;;;9.10;;
19509;SDS011;9896;42.486;26.506;2023-02-28T09:18:03;12.67;;;6.57;;
19509;SDS011;9896;42.486;26.506;2023-02-28T09:20:28;15.90;;;9.13;;
19509;SDS011;9896;42.486;26.506;2023-02-28T09:22:54;17.20;;;9.93;;
19509;SDS011;9896;42.486;26.506;2023-02-28T09:25:20;23.50;;;11.03;;
19509;SDS011;9896;42.486;26.506;2023-02-28T09:27:45;19.37;;;9.37;;
19509;SDS011;9896;42.486;26.506;2023-02-28T09:30:11;17.87;;;10.60;;
19509;SDS011;9896;42.486;26.506;2023-02-28T09:32:38;19.87;;;10.53;;
19509;SDS011;9896;42.486;26.506;2023-02-28T09:35:03;20.87;;;11.17;;
19509;SDS011;9896;42.486;26.506;2023-02-28T09:37:30;12.00;;;7.23;;
19509;SDS011;9896;42.486;26.506;2023-02-28T09:39:57;21.33;;;12.67;;
19509;SDS011;9896;42.486;26.506;2023-02-28T09:42:32;24.40;;;11.23;;
19509;SDS011;9896;42.486;26.506;2023-02-28T09:45:03;13.37;;;7.23;;
19509;SDS011;9896;42.486;26.506;2023-02-28T09:47:39;15.67;;;8.17;;
19509;SDS011;9896;42.486;26.506;2023-02-28T09:50:17;21.67;;;10.40;;
19509;SDS011;9896;42.486;26.506;2023-02-28T09:52:45;14.40;;;8.10;;
19509;SDS011;9896;42.486;26.506;2023-02-28T09:58:17;15.83;;;10.03;;
19509;SDS011;9896;42.486;26.506;2023-02-28T10:01:03;143.80;;;19.43;;
19509;SDS011;9896;42.486;26.506;2023-02-28T10:03:42;17.43;;;8.77;;
19509;SDS011;9896;42.486;26.506;2023-02-28T10:06:14;37.40;;;11.43;;
19509;SDS011;9896;42.486;26.506;2023-02-28T10:11:38;20.73;;;9.47;;
19509;SDS011;9896;42.486;26.506;2023-02-28T10:14:15;18.17;;;8.57;;
19509;SDS011;9896;42.486;26.506;2023-02-28T10:24:39;22.07;;;10.03;;
19509;SDS011;9896;42.486;26.506;2023-02-28T10:27:15;21.90;;;10.73;;
19509;SDS011;9896;42.486;26.506;2023-02-28T10:29:44;21.70;;;9.67;;
19509;SDS011;9896;42.486;26.506;2023-02-28T10:32:18;26.17;;;10.73;;
19509;SDS011;9896;42.486;26.506;2023-02-28T10:37:32;31.73;;;10.57;;
19509;SDS011;9896;42.486;26.506;2023-02-28T10:40:24;16.53;;;7.37;;
19509;SDS011;9896;42.486;26.506;2023-02-28T10:45:23;24.67;;;12.40;;
19509;SDS011;9896;42.486;26.506;2023-02-28T10:47:57;32.87;;;12.10;;
19509;SDS011;9896;42.486;26.506;2023-02-28T10:50:34;25.80;;;10.70;;
19509;SDS011;9896;42.486;26.506;2023-02-28T10:55:35;34.80;;;12.87;;
19509;SDS011;9896;42.486;26.506;2023-02-28T10:58:01;18.67;;;9.00;;
19509;SDS011;9896;42.486;26.506;2023-02-28T11:00:32;25.27;;;11.87;;
19509;SDS011;9896;42.486;26.506;2023-02-28T11:02:59;25.00;;;9.87;;
19509;SDS011;9896;42.486;26.506;2023-02-28T11:05:26;26.93;;;12.17;;
19509;SDS011;9896;42.486;26.506;2023-02-28T11:07:59;27.23;;;11.43;;
19509;SDS011;9896;42.486;26.506;2023-02-28T11:10:37;38.87;;;14.40;;
19509;SDS011;9896;42.486;26.506;2023-02-28T11:13:03;27.03;;;11.07;;
19509;SDS011;9896;42.486;26.506;2023-02-28T11:15:31;27.50;;;11.87;;
19509;SDS011;9896;42.486;26.506;2023-02-28T11:17:59;19.40;;;9.03;;
19509;SDS011;9896;42.486;26.506;2023-02-28T11:20:31;19.87;;;9.37;;
19509;SDS011;9896;42.486;26.506;2023-02-28T11:22:58;24.20;;;10.90;;
19509;SDS011;9896;42.486;26.506;2023-02-28T11:27:56;15.60;;;8.17;;
19509;SDS011;9896;42.486;26.506;2023-02-28T11:33:21;17.07;;;9.00;;
19509;SDS011;9896;42.486;26.506;2023-02-28T11:36:01;23.40;;;9.83;;
19509;SDS011;9896;42.486;26.506;2023-02-28T11:38:29;25.87;;;11.57;;
19509;SDS011;9896;42.486;26.506;2023-02-28T11:43:50;20.93;;;9.47;;
19509;SDS011;9896;42.486;26.506;2023-02-28T11:46:36;26.90;;;10.60;;
19509;SDS011;9896;42.486;26.506;2023-02-28T11:49:25;21.83;;;9.50;;
19509;SDS011;9896;42.486;26.506;2023-02-28T11:55:00;18.33;;;7.83;;
19509;SDS011;9896;42.486;26.506;2023-02-28T12:00:57;22.83;;;9.07;;
19509;SDS011;9896;42.486;26.506;2023-02-28T12:07:04;23.73;;;9.47;;
19509;SDS011;9896;42.486;26.506;2023-02-28T12:12:38;16.60;;;7.37;;
19509;SDS011;9896;42.486;26.506;2023-02-28T12:15:16;27.60;;;10.57;;
19509;SDS011;9896;42.486;26.506;2023-02-28T12:23:08;32.97;;;11.13;;
19509;SDS011;9896;42.486;26.506;2023-02-28T12:28:30;25.30;;;9.97;;
19509;SDS011;9896;42.486;26.506;2023-02-28T12:31:08;18.17;;;8.20;;
19509;SDS011;9896;42.486;26.506;2023-02-28T12:33:40;15.63;;;6.37;;
19509;SDS011;9896;42.486;26.506;2023-02-28T12:36:16;13.60;;;7.23;;
19509;SDS011;9896;42.486;26.506;2023-02-28T12:39:00;12.23;;;6.60;;
19509;SDS011;9896;42.486;26.506;2023-02-28T12:44:28;19.97;;;7.03;;
19509;SDS011;9896;42.486;26.506;2023-02-28T12:47:13;11.93;;;6.00;;
19509;SDS011;9896;42.486;26.506;2023-02-28T12:49:49;10.97;;;6.13;;
19509;SDS011;9896;42.486;26.506;2023-02-28T12:52:25;11.27;;;5.90;;
19509;SDS011;9896;42.486;26.506;2023-02-28T13:09:15;10.80;;;6.07;;
19509;SDS011;9896;42.486;26.506;2023-02-28T13:11:46;12.63;;;5.67;;
19509;SDS011;9896;42.486;26.506;2023-02-28T13:14:19;13.03;;;7.00;;
19509;SDS011;9896;42.486;26.506;2023-02-28T13:17:10;9.67;;;5.63;;
19509;SDS011;9896;42.486;26.506;2023-02-28T13:24:51;16.40;;;6.23;;
19509;SDS011;9896;42.486;26.506;2023-02-28T13:38:51;11.77;;;5.47;;
19509;SDS011;9896;42.486;26.506;2023-02-28T13:51:51;15.57;;;6.43;;
19509;SDS011;9896;42.486;26.506;2023-02-28T13:57:14;14.40;;;7.07;;
19509;SDS011;9896;42.486;26.506;2023-02-28T14:05:23;11.07;;;6.43;;
19509;SDS011;9896;42.486;26.506;2023-02-28T14:07:56;13.47;;;6.87;;
19509;SDS011;9896;42.486;26.506;2023-02-28T14:12:55;13.20;;;6.87;;
19509;SDS011;9896;42.486;26.506;2023-02-28T14:15:59;16.13;;;7.10;;
19509;SDS011;9896;42.486;26.506;2023-02-28T14:18:28;14.60;;;7.07;;
19509;SDS011;9896;42.486;26.506;2023-02-28T14:20:57;14.20;;;7.13;;
19509;SDS011;9896;42.486;26.506;2023-02-28T14:29:52;19.60;;;10.20;;
19509;SDS011;9896;42.486;26.506;2023-02-28T14:35:58;21.77;;;11.27;;
19509;SDS011;9896;42.486;26.506;2023-02-28T14:38:27;12.97;;;7.37;;
19509;SDS011;9896;42.486;26.506;2023-02-28T14:40:56;21.13;;;10.40;;
19509;SDS011;9896;42.486;26.506;2023-02-28T14:43:26;23.53;;;12.67;;
19509;SDS011;9896;42.486;26.506;2023-02-28T14:45:57;18.87;;;10.17;;
19509;SDS011;9896;42.486;26.506;2023-02-28T14:48:25;16.47;;;10.47;;
19509;SDS011;9896;42.486;26.506;2023-02-28T14:50:53;26.03;;;12.07;;
19509;SDS011;9896;42.486;26.506;2023-02-28T14:53:22;24.13;;;11.90;;
19509;SDS011;9896;42.486;26.506;2023-02-28T14:55:50;15.13;;;8.90;;
19509;SDS011;9896;42.486;26.506;2023-02-28T15:00:50;17.97;;;9.27;;
19509;SDS011;9896;42.486;26.506;2023-02-28T15:05:55;18.73;;;9.97;;
19509;SDS011;9896;42.486;26.506;2023-02-28T15:08:23;22.27;;;10.10;;
19509;SDS011;9896;42.486;26.506;2023-02-28T15:10:53;19.93;;;10.43;;
19509;SDS011;9896;42.486;26.506;2023-02-28T15:13:49;23.67;;;10.73;;
19509;SDS011;9896;42.486;26.506;2023-02-28T15:16:22;19.53;;;10.40;;
19509;SDS011;9896;42.486;26.506;2023-02-28T15:19:00;19.53;;;10.57;;
19509;SDS011;9896;42.486;26.506;2023-02-28T15:21:37;18.93;;;10.10;;
19509;SDS011;9896;42.486;26.506;2023-02-28T15:24:19;17.20;;;7.80;;
19509;SDS011;9896;42.486;26.506;2023-02-28T15:26:58;16.70;;;10.17;;
19509;SDS011;9896;42.486;26.506;2023-02-28T15:29:28;17.37;;;9.17;;
19509;SDS011;9896;42.486;26.506;2023-02-28T15:34:38;23.33;;;10.67;;
19509;SDS011;9896;42.486;26.506;2023-02-28T15:37:23;22.47;;;10.87;;
19509;SDS011;9896;42.486;26.506;2023-02-28T15:40:21;19.33;;;10.23;;
19509;SDS011;9896;42.486;26.506;2023-02-28T15:43:04;21.50;;;11.33;;
19509;SDS011;9896;42.486;26.506;2023-02-28T15:45:34;23.93;;;11.10;;
19509;SDS011;9896;42.486;26.506;2023-02-28T15:48:03;18.53;;;9.73;;
19509;SDS011;9896;42.486;26.506;2023-02-28T15:50:30;18.63;;;10.83;;
19509;SDS011;9896;42.486;26.506;2023-02-28T15:52:56;17.33;;;9.40;;
19509;SDS011;9896;42.486;26.506;2023-02-28T15:55:23;18.93;;;9.93;;
19509;SDS011;9896;42.486;26.506;2023-02-28T15:57:56;19.63;;;9.67;;
19509;SDS011;9896;42.486;26.506;2023-02-28T16:00:26;19.47;;;10.63;;
19509;SDS011;9896;42.486;26.506;2023-02-28T16:02:58;24.47;;;12.50;;
19509;SDS011;9896;42.486;26.506;2023-02-28T16:05:27;21.27;;;10.90;;
19509;SDS011;9896;42.486;26.506;2023-02-28T16:08:00;17.97;;;9.43;;
19509;SDS011;9896;42.486;26.506;2023-02-28T16:10:40;20.60;;;9.97;;
19509;SDS011;9896;42.486;26.506;2023-02-28T16:13:05;16.37;;;7.50;;
19509;SDS011;9896;42.486;26.506;2023-02-28T16:15:35;15.57;;;7.83;;
19509;SDS011;9896;42.486;26.506;2023-02-28T16:18:08;12.83;;;7.07;;
19509;SDS011;9896;42.486;26.506;2023-02-28T16:20:37;18.97;;;9.30;;
19509;SDS011;9896;42.486;26.506;2023-02-28T16:23:03;17.83;;;9.57;;
19509;SDS011;9896;42.486;26.506;2023-02-28T16:25:33;18.23;;;8.60;;
19509;SDS011;9896;42.486;26.506;2023-02-28T16:28:01;19.80;;;9.70;;
19509;SDS011;9896;42.486;26.506;2023-02-28T16:30:27;19.10;;;8.40;;
19509;SDS011;9896;42.486;26.506;2023-02-28T16:32:57;17.73;;;8.43;;
19509;SDS011;9896;42.486;26.506;2023-02-28T16:35:23;15.40;;;7.70;;
19509;SDS011;9896;42.486;26.506;2023-02-28T16:37:52;19.67;;;8.60;;
19509;SDS011;9896;42.486;26.506;2023-02-28T16:40:20;18.67;;;8.87;;
19509;SDS011;9896;42.486;26.506;2023-02-28T16:42:52;19.57;;;10.20;;
19509;SDS011;9896;42.486;26.506;2023-02-28T16:45:22;25.43;;;12.47;;
19509;SDS011;9896;42.486;26.506;2023-02-28T16:47:50;25.97;;;13.63;;
19509;SDS011;9896;42.486;26.506;2023-02-28T16:50:17;20.97;;;11.63;;
19509;SDS011;9896;42.486;26.506;2023-02-28T16:52:44;22.90;;;12.47;;
19509;SDS011;9896;42.486;26.506;2023-02-28T16:55:09;16.63;;;9.33;;
19509;SDS011;9896;42.486;26.506;2023-02-28T16:57:36;22.27;;;10.63;;
19509;SDS011;9896;42.486;26.506;2023-02-28T17:00:02;24.57;;;12.20;;
19509;SDS011;9896;42.486;26.506;2023-02-28T17:02:30;20.43;;;9.33;;
19509;SDS011;9896;42.486;26.506;2023-02-28T17:04:55;11.73;;;7.27;;
19509;SDS011;9896;42.486;26.506;2023-02-28T17:07:21;17.77;;;9.83;;
19509;SDS011;9896;42.486;26.506;2023-02-28T17:09:46;22.43;;;10.93;;
19509;SDS011;9896;42.486;26.506;2023-02-28T17:12:12;21.17;;;11.13;;
19509;SDS011;9896;42.486;26.506;2023-02-28T17:14:38;24.43;;;12.47;;
19509;SDS011;9896;42.486;26.506;2023-02-28T17:17:04;25.57;;;14.17;;
19509;SDS011;9896;42.486;26.506;2023-02-28T17:19:30;28.77;;;15.63;;
19509;SDS011;9896;42.486;26.506;2023-02-28T17:21:56;26.80;;;13.63;;